createdAt,value
2019-05-09T00:00:43.772Z,99.90
2019-05-09T00:03:13.637Z,99.90
2019-05-09T00:05:43.945Z,99.90
2019-05-09T00:08:13.934Z,99.90
2019-05-09T00:10:44.921Z,99.90
2019-05-09T00:13:13.723Z,99.90
2019-05-09T00:15:43.724Z,99.90
2019-05-09T00:18:14.257Z,99.90
2019-05-09T00:20:50.014Z,99.90
2019-05-09T00:23:18.601Z,99.90
2019-05-09T00:25:47.183Z,99.90
2019-05-09T00:28:15.658Z,99.90
2019-05-09T00:30:54.795Z,99.90
2019-05-09T00:33:31.108Z,99.90
2019-05-09T00:35:59.653Z,99.90
2019-05-09T00:38:29.930Z,99.90
2019-05-09T00:40:59.154Z,99.90
2019-05-09T00:43:27.812Z,99.90
2019-05-09T00:46:00.644Z,99.90
2019-05-09T00:48:33.527Z,99.90
2019-05-09T00:51:03.410Z,99.90
2019-05-09T00:53:33.851Z,99.90
2019-05-09T00:56:04.145Z,99.90
2019-05-09T00:58:33.429Z,99.90
2019-05-09T01:01:04.288Z,99.90
2019-05-09T01:03:34.003Z,99.90
2019-05-09T01:06:04.068Z,99.90
2019-05-09T01:08:33.681Z,99.90
2019-05-09T01:11:11.328Z,99.90
2019-05-09T01:13:34.102Z,99.90
2019-05-09T01:16:04.499Z,99.90
2019-05-09T01:18:34.252Z,99.90
2019-05-09T01:21:04.009Z,99.90
2019-05-09T01:23:34.407Z,99.90
2019-05-09T01:26:03.948Z,99.90
2019-05-09T01:28:33.884Z,99.90
2019-05-09T01:31:04.011Z,99.90
2019-05-09T01:33:34.537Z,99.90
2019-05-09T01:36:03.885Z,99.90
2019-05-09T01:38:33.918Z,99.90
2019-05-09T01:41:04.066Z,99.90
2019-05-09T01:43:33.799Z,99.90
2019-05-09T01:46:03.797Z,99.90
2019-05-09T01:48:34.110Z,99.90
2019-05-09T01:51:03.329Z,99.90
2019-05-09T01:53:33.704Z,99.90
2019-05-09T01:56:03.716Z,99.90
2019-05-09T01:58:34.174Z,99.90
2019-05-09T02:01:05.416Z,99.90
2019-05-09T02:03:34.187Z,99.90
2019-05-09T02:06:03.464Z,99.90
2019-05-09T02:08:34.470Z,99.90
2019-05-09T02:11:03.816Z,99.90
2019-05-09T02:13:33.927Z,99.90
2019-05-09T02:16:14.130Z,99.90
2019-05-09T02:18:49.827Z,99.90
2019-05-09T02:21:18.304Z,99.90
2019-05-09T02:23:46.853Z,99.90
2019-05-09T02:26:16.001Z,99.90
2019-05-09T02:28:44.464Z,99.90
2019-05-09T02:31:16.236Z,99.90
2019-05-09T02:33:45.455Z,99.90
2019-05-09T02:36:13.341Z,99.90
2019-05-09T02:38:41.933Z,99.90
2019-05-09T02:41:10.441Z,99.90
2019-05-09T02:43:39.174Z,99.90
2019-05-09T02:46:18.622Z,99.90
2019-05-09T02:48:49.234Z,99.90
2019-05-09T02:51:18.540Z,99.90
2019-05-09T02:53:48.603Z,99.90
2019-05-09T02:56:18.863Z,99.90
2019-05-09T02:58:50.716Z,99.90
2019-05-09T03:01:39.239Z,99.90
2019-05-09T03:04:08.579Z,99.90
2019-05-09T03:06:38.929Z,99.90
2019-05-09T03:09:08.947Z,99.90
2019-05-09T03:11:38.948Z,99.90
2019-05-09T03:14:09.087Z,99.90
2019-05-09T03:16:39.807Z,99.90
2019-05-09T03:19:09.214Z,99.90
2019-05-09T03:21:39.621Z,99.90
2019-05-09T03:24:09.741Z,99.90
2019-05-09T03:26:40.015Z,99.90
2019-05-09T03:29:12.926Z,99.90
2019-05-09T03:31:42.710Z,99.90
2019-05-09T03:34:11.193Z,99.90
2019-05-09T03:36:39.655Z,99.90
2019-05-09T03:39:08.494Z,99.90
2019-05-09T03:41:39.331Z,99.90
2019-05-09T03:44:07.354Z,99.90
2019-05-09T03:46:53.485Z,99.90
2019-05-09T03:49:23.743Z,99.90
2019-05-09T03:51:52.206Z,99.90
2019-05-09T03:54:20.688Z,99.90
2019-05-09T03:56:53.775Z,99.90
2019-05-09T03:59:22.273Z,99.90
2019-05-09T04:01:50.800Z,99.90
2019-05-09T04:04:19.603Z,99.90
2019-05-09T04:06:48.185Z,99.90
2019-05-09T04:09:17.986Z,99.90
2019-05-09T04:11:48.547Z,99.90
2019-05-09T04:14:21.362Z,99.90
2019-05-09T04:16:48.577Z,99.90
2019-05-09T04:19:17.559Z,99.90
2019-05-09T04:21:48.246Z,99.90
2019-05-09T04:24:17.689Z,99.90
2019-05-09T04:26:48.472Z,99.90
2019-05-09T04:29:18.390Z,99.90
2019-05-09T04:31:48.328Z,99.90
2019-05-09T04:34:18.312Z,99.90
2019-05-09T04:36:48.365Z,99.90
2019-05-09T04:39:23.429Z,99.90
2019-05-09T04:41:48.786Z,99.90
2019-05-09T04:44:22.072Z,99.90
2019-05-09T04:46:54.048Z,99.90
2019-05-09T04:49:20.817Z,99.90
2019-05-09T04:51:49.379Z,99.90
2019-05-09T04:54:17.956Z,99.90
2019-05-09T04:56:47.435Z,99.90
2019-05-09T04:59:17.988Z,99.90
2019-05-09T05:01:59.929Z,99.90
2019-05-09T05:04:28.460Z,99.90
2019-05-09T05:06:58.510Z,99.90
2019-05-09T05:09:27.745Z,99.90
2019-05-09T05:11:57.997Z,99.90
2019-05-09T05:14:28.395Z,99.90
2019-05-09T05:17:06.173Z,99.90
2019-05-09T05:19:28.558Z,99.90
2019-05-09T05:21:59.319Z,99.90
2019-05-09T05:24:35.150Z,99.90
2019-05-09T05:27:03.715Z,99.90
2019-05-09T05:29:32.187Z,99.90
2019-05-09T05:32:02.391Z,99.90
2019-05-09T05:34:35.219Z,99.90
2019-05-09T05:37:03.718Z,99.90
2019-05-09T05:39:32.263Z,99.90
2019-05-09T05:42:00.763Z,99.90
2019-05-09T05:44:29.289Z,99.90
2019-05-09T05:47:08.472Z,99.90
2019-05-09T05:49:38.476Z,99.90
2019-05-09T05:52:08.041Z,99.90
2019-05-09T05:54:37.847Z,99.90
2019-05-09T05:57:08.426Z,99.90
2019-05-09T05:59:40.383Z,99.90
2019-05-09T06:02:08.555Z,99.90
2019-05-09T06:04:38.169Z,99.90
2019-05-09T06:07:08.047Z,99.90
2019-05-09T06:09:38.001Z,99.90
2019-05-09T06:12:08.270Z,99.90
2019-05-09T06:14:37.779Z,99.90
2019-05-09T06:17:07.921Z,99.90
2019-05-09T06:19:37.999Z,99.90
2019-05-09T06:22:08.206Z,99.90
2019-05-09T06:24:38.704Z,99.90
2019-05-09T06:27:10.147Z,99.90
2019-05-09T06:29:38.598Z,99.90
2019-05-09T06:32:08.016Z,99.90
2019-05-09T06:34:41.394Z,99.90
2019-05-09T06:37:08.871Z,99.90
2019-05-09T06:39:37.975Z,99.90
2019-05-09T06:42:08.913Z,99.90
2019-05-09T06:44:41.021Z,99.90
2019-05-09T06:47:27.776Z,99.90
2019-05-09T06:49:58.034Z,99.90
2019-05-09T06:52:28.192Z,99.90
2019-05-09T06:54:58.226Z,99.90
2019-05-09T06:57:28.149Z,99.90
2019-05-09T06:59:57.859Z,99.90
2019-05-09T07:02:30.943Z,99.90
2019-05-09T07:05:03.772Z,99.90
2019-05-09T07:07:53.299Z,99.90
2019-05-09T07:10:21.857Z,99.90
2019-05-09T07:12:50.423Z,99.90
2019-05-09T07:15:18.964Z,99.90
2019-05-09T07:17:48.186Z,99.90
2019-05-09T07:20:18.260Z,99.90
2019-05-09T07:22:48.501Z,99.90
2019-05-09T07:25:30.733Z,99.90
2019-05-09T07:27:59.394Z,99.90
2019-05-09T07:30:32.219Z,99.90
2019-05-09T07:33:19.482Z,99.90
2019-05-09T07:35:48.175Z,99.90
2019-05-09T07:38:18.294Z,99.90
2019-05-09T07:40:47.735Z,99.90
2019-05-09T07:43:18.033Z,99.90
2019-05-09T07:46:08.704Z,99.90
2019-05-09T07:48:38.283Z,99.90
2019-05-09T07:51:07.814Z,99.90
2019-05-09T07:53:38.046Z,99.90
2019-05-09T07:56:07.982Z,99.90
2019-05-09T07:58:37.761Z,99.90
2019-05-09T08:03:38.459Z,99.90
2019-05-09T08:06:08.723Z,99.90
2019-05-09T08:07:31.092Z,99.90
2019-05-09T08:08:38.498Z,99.90
2019-05-09T08:11:08.795Z,99.90
2019-05-09T08:13:39.128Z,99.90
2019-05-09T08:16:12.417Z,99.90
2019-05-09T08:18:38.098Z,99.90
2019-05-09T08:21:08.491Z,99.90
2019-05-09T08:23:38.026Z,99.90
2019-05-09T08:26:08.757Z,99.90
2019-05-09T08:28:38.935Z,99.90
2019-05-09T08:31:08.242Z,99.90
2019-05-09T08:33:38.092Z,99.90
2019-05-09T08:36:08.788Z,99.90
2019-05-09T08:38:38.995Z,99.90
2019-05-09T08:41:09.407Z,99.90
2019-05-09T08:43:39.510Z,99.90
2019-05-09T08:46:08.710Z,99.90
2019-05-09T08:48:37.946Z,98.70
2019-05-09T08:51:08.914Z,99.80
2019-05-09T08:53:38.106Z,99.90
2019-05-09T08:56:08.622Z,93.20
2019-05-09T08:58:38.223Z,99.90
2019-05-09T09:01:10.059Z,99.90
2019-05-09T09:03:37.839Z,99.90
2019-05-09T09:06:08.265Z,99.90
2019-05-09T09:08:37.953Z,93.00
2019-05-09T09:11:08.543Z,91.90
2019-05-09T09:13:37.827Z,86.00
2019-05-09T09:16:18.064Z,91.60
2019-05-09T09:18:38.814Z,95.80
2019-05-09T09:21:08.097Z,99.90
2019-05-09T09:23:44.040Z,99.90
2019-05-09T09:26:18.225Z,99.90
2019-05-09T09:28:48.282Z,99.90
2019-05-09T09:31:17.970Z,99.90
2019-05-09T09:33:48.040Z,99.90
2019-05-09T09:36:17.838Z,99.60
2019-05-09T09:38:48.069Z,99.90
2019-05-09T09:41:18.156Z,99.90
2019-05-09T09:43:47.666Z,96.70
2019-05-09T09:46:18.255Z,92.80
2019-05-09T09:48:48.078Z,99.90
2019-05-09T09:51:18.673Z,99.90
2019-05-09T09:53:48.988Z,99.90
2019-05-09T09:56:17.845Z,99.90
2019-05-09T09:58:48.944Z,95.40
2019-05-09T10:01:28.697Z,88.50
2019-05-09T10:04:16.654Z,78.30
2019-05-09T10:06:35.142Z,90.50
2019-05-09T10:09:04.816Z,89.70
2019-05-09T10:11:33.424Z,82.90
2019-05-09T10:14:02.105Z,79.80
2019-05-09T10:16:39.014Z,69.50
2019-05-09T10:19:09.288Z,66.70
2019-05-09T10:21:39.500Z,71.60
2019-05-09T10:24:08.095Z,74.90
2019-05-09T10:26:38.983Z,72.10
2019-05-09T10:29:07.644Z,69.10
2019-05-09T10:31:39.048Z,72.00
2019-05-09T10:34:06.317Z,67.90
2019-05-09T10:36:34.859Z,72.10
2019-05-09T10:39:04.573Z,69.60
2019-05-09T10:41:33.101Z,69.70
2019-05-09T10:44:08.142Z,72.90
2019-05-09T10:46:52.917Z,71.60
2019-05-09T10:49:10.794Z,70.60
2019-05-09T10:51:39.516Z,70.00
2019-05-09T10:54:08.354Z,74.40
2019-05-09T10:56:38.432Z,70.00
2019-05-09T10:59:07.797Z,65.00
2019-05-09T11:01:38.209Z,65.00
2019-05-09T11:04:08.190Z,64.90
2019-05-09T11:06:38.195Z,64.10
2019-05-09T11:09:09.250Z,62.00
2019-05-09T11:11:37.992Z,65.40
2019-05-09T11:14:08.554Z,63.40
2019-05-09T11:16:44.823Z,60.60
2019-05-09T11:19:08.089Z,58.30
2019-05-09T11:21:39.126Z,60.90
2019-05-09T11:24:08.402Z,64.00
2019-05-09T11:26:39.506Z,64.10
2019-05-09T11:29:07.993Z,67.70
2019-05-09T11:31:38.376Z,74.60
2019-05-09T11:34:08.936Z,84.80
2019-05-09T11:36:38.025Z,86.70
2019-05-09T11:39:10.683Z,85.00
2019-05-09T11:41:38.551Z,82.60
2019-05-09T11:44:08.469Z,81.10
2019-05-09T11:46:38.214Z,83.60
2019-05-09T11:49:08.297Z,81.80
2019-05-09T11:51:37.146Z,83.60
2019-05-09T11:54:05.732Z,78.60
2019-05-09T11:56:34.255Z,72.10
2019-05-09T11:59:02.746Z,75.40
2019-05-09T12:01:31.300Z,76.40
2019-05-09T12:03:59.868Z,71.60
2019-05-09T12:06:29.169Z,77.60
2019-05-09T12:08:58.862Z,83.30
2019-05-09T12:11:27.635Z,77.40
2019-05-09T12:13:58.218Z,71.80
2019-05-09T12:16:27.966Z,73.80
2019-05-09T12:18:58.386Z,78.50
2019-05-09T12:21:28.202Z,79.20
2019-05-09T12:23:58.150Z,78.10
2019-05-09T12:26:29.161Z,81.50
2019-05-09T12:28:57.795Z,77.30
2019-05-09T12:31:28.723Z,72.90
2019-05-09T12:33:59.351Z,66.50
2019-05-09T12:36:28.672Z,66.30
2019-05-09T12:38:59.058Z,63.70
2019-05-09T12:41:31.378Z,61.70
2019-05-09T12:43:57.952Z,65.40
2019-05-09T12:46:28.370Z,65.60
2019-05-09T12:48:59.070Z,63.10
2019-05-09T12:51:28.137Z,63.40
2019-05-09T12:53:57.806Z,63.70
2019-05-09T12:56:28.423Z,64.30
2019-05-09T12:58:57.943Z,61.50
2019-05-09T13:01:26.566Z,63.30
2019-05-09T13:03:55.204Z,66.50
2019-05-09T13:06:23.837Z,71.80
2019-05-09T13:08:53.186Z,73.20
2019-05-09T13:11:21.675Z,71.40
2019-05-09T13:13:50.137Z,71.90
2019-05-09T13:16:23.000Z,70.40
2019-05-09T13:19:04.868Z,68.20
2019-05-09T13:21:33.507Z,64.50
2019-05-09T13:24:02.332Z,64.60
2019-05-09T13:26:31.109Z,68.90
2019-05-09T13:28:59.649Z,68.20
2019-05-09T13:31:29.556Z,65.60
2019-05-09T13:33:58.519Z,64.00
2019-05-09T13:36:28.353Z,64.40
2019-05-09T13:39:04.781Z,67.30
2019-05-09T13:41:28.329Z,67.90
2019-05-09T13:43:59.119Z,71.10
2019-05-09T13:46:28.257Z,72.70
2019-05-09T13:49:09.228Z,72.20
2019-05-09T13:51:27.274Z,70.70
2019-05-09T13:53:59.117Z,72.60
2019-05-09T13:56:27.964Z,70.00
2019-05-09T13:58:58.058Z,72.70
2019-05-09T14:01:26.514Z,70.20
2019-05-09T14:03:57.443Z,71.80
2019-05-09T14:06:27.549Z,68.20
2019-05-09T14:08:55.488Z,70.70
2019-05-09T14:11:24.033Z,73.80
2019-05-09T14:13:52.562Z,75.10
2019-05-09T14:16:22.265Z,74.00
2019-05-09T14:18:51.157Z,74.30
2019-05-09T14:21:24.326Z,74.80
2019-05-09T14:24:03.308Z,74.30
2019-05-09T14:26:20.320Z,71.40
2019-05-09T14:28:49.162Z,74.50
2019-05-09T14:31:18.653Z,74.40
2019-05-09T14:33:47.761Z,77.80
2019-05-09T14:36:16.384Z,75.40
2019-05-09T14:38:44.995Z,77.20
2019-05-09T14:41:13.555Z,78.20
2019-05-09T14:43:42.038Z,80.90
2019-05-09T14:46:10.583Z,83.00
2019-05-09T14:48:39.064Z,86.20
2019-05-09T14:51:07.862Z,88.70
2019-05-09T14:53:38.912Z,90.10
2019-05-09T14:56:08.762Z,86.40
2019-05-09T14:58:38.835Z,85.80
2019-05-09T15:01:08.653Z,86.10
2019-05-09T15:03:38.944Z,86.80
2019-05-09T15:06:07.735Z,87.50
2019-05-09T15:08:38.170Z,87.50
2019-05-09T15:11:09.720Z,89.50
2019-05-09T15:13:36.732Z,87.60
2019-05-09T15:16:05.278Z,89.70
2019-05-09T15:18:33.840Z,88.40
2019-05-09T15:21:02.387Z,91.70
2019-05-09T15:23:30.871Z,90.70
2019-05-09T15:25:59.332Z,89.30
2019-05-09T15:28:29.202Z,92.00
2019-05-09T15:30:59.419Z,92.70
2019-05-09T15:33:28.140Z,92.10
2019-05-09T15:35:58.882Z,92.90
2019-05-09T15:38:29.001Z,94.40
2019-05-09T15:40:57.300Z,93.20
2019-05-09T15:43:26.125Z,93.80
2019-05-09T15:45:59.003Z,92.30
2019-05-09T15:48:27.616Z,94.00
2019-05-09T15:50:58.108Z,92.30
2019-05-09T15:53:27.850Z,93.90
2019-05-09T15:55:58.653Z,93.90
2019-05-09T15:58:28.711Z,96.10
2019-05-09T16:00:58.868Z,94.90
2019-05-09T16:03:27.873Z,96.90
2019-05-09T16:05:58.448Z,96.40
2019-05-09T16:08:28.740Z,95.30
2019-05-09T16:10:58.090Z,94.50
2019-05-09T16:13:28.461Z,94.70
2019-05-09T16:15:57.668Z,95.10
2019-05-09T16:18:28.618Z,95.90
2019-05-09T16:20:58.048Z,97.50
2019-05-09T16:23:28.840Z,95.90
2019-05-09T16:25:58.585Z,97.60
2019-05-09T16:28:27.253Z,96.50
2019-05-09T16:30:55.782Z,96.40
2019-05-09T16:33:24.270Z,97.30
2019-05-09T16:35:53.204Z,97.90
2019-05-09T16:38:21.808Z,99.90
2019-05-09T16:40:50.369Z,99.60
2019-05-09T16:43:18.915Z,99.90
2019-05-09T16:45:47.927Z,99.90
2019-05-09T16:48:18.539Z,99.90
2019-05-09T16:50:57.734Z,99.90
2019-05-09T16:53:18.645Z,99.90
2019-05-09T16:55:47.216Z,99.90
2019-05-09T16:58:18.484Z,99.90
2019-05-09T17:00:48.371Z,99.90
2019-05-09T17:03:17.668Z,99.90
2019-05-09T17:05:46.349Z,99.90
2019-05-09T17:08:17.592Z,99.90
2019-05-09T17:10:48.365Z,99.90
2019-05-09T17:13:18.224Z,99.90
2019-05-09T17:15:46.128Z,99.90
2019-05-09T17:18:14.726Z,99.90
2019-05-09T17:20:44.901Z,99.90
2019-05-09T17:23:15.328Z,99.90
2019-05-09T17:25:44.048Z,99.90
2019-05-09T17:28:12.681Z,99.90
2019-05-09T17:30:41.538Z,99.90
2019-05-09T17:33:10.015Z,99.90
2019-05-09T17:35:38.826Z,99.90
2019-05-09T17:38:08.686Z,99.90
2019-05-09T17:40:39.039Z,99.90
2019-05-09T17:43:08.250Z,99.90
2019-05-09T17:45:41.807Z,99.90
2019-05-09T17:48:08.580Z,99.90
2019-05-09T17:50:38.370Z,99.90
2019-05-09T17:53:08.626Z,99.90
2019-05-09T17:55:38.097Z,99.90
2019-05-09T17:58:08.772Z,99.90
2019-05-09T18:00:37.939Z,99.90
2019-05-09T18:03:06.798Z,99.90
2019-05-09T18:05:36.681Z,99.90
2019-05-09T18:08:08.056Z,99.90
2019-05-09T18:10:38.099Z,99.90
2019-05-09T18:13:07.940Z,99.90
2019-05-09T18:15:37.850Z,99.90
2019-05-09T18:18:06.685Z,99.90
2019-05-09T18:20:37.931Z,99.90
2019-05-09T18:23:08.208Z,99.90
2019-05-09T18:25:37.774Z,99.90
2019-05-09T18:28:06.689Z,99.90
2019-05-09T18:30:35.338Z,99.90
2019-05-09T18:33:07.530Z,99.90
2019-05-09T18:35:37.886Z,99.90
2019-05-09T18:38:07.922Z,99.90
2019-05-09T18:40:37.011Z,99.90
2019-05-09T18:43:07.692Z,99.90
2019-05-09T18:45:37.551Z,99.90
2019-05-09T18:48:08.436Z,99.90
2019-05-09T18:50:37.179Z,99.90
2019-05-09T18:53:05.830Z,99.90
2019-05-09T18:55:34.371Z,99.90
2019-05-09T18:58:02.916Z,99.90
2019-05-09T19:00:31.535Z,99.90
2019-05-09T19:03:00.107Z,99.90
2019-05-09T19:05:28.657Z,99.90
2019-05-09T19:07:57.500Z,99.90
2019-05-09T19:10:26.204Z,99.90
2019-05-09T19:12:54.808Z,99.90
2019-05-09T19:15:41.079Z,99.90
2019-05-09T19:18:20.119Z,99.90
2019-05-09T19:20:53.325Z,99.90
2019-05-09T19:23:21.832Z,99.90
2019-05-09T19:25:50.428Z,99.90
2019-05-09T19:28:19.321Z,99.90
2019-05-09T19:30:47.887Z,99.90
2019-05-09T19:33:16.571Z,99.90
2019-05-09T19:35:45.190Z,99.90
2019-05-09T19:38:13.744Z,99.90
2019-05-09T19:40:42.334Z,99.90
2019-05-09T19:43:11.121Z,99.90
2019-05-09T19:45:39.718Z,99.90
2019-05-09T19:48:08.309Z,99.90
2019-05-09T19:50:36.945Z,99.90
2019-05-09T19:53:05.657Z,99.90
2019-05-09T19:55:34.407Z,99.90
2019-05-09T19:58:03.047Z,99.90
2019-05-09T20:00:31.702Z,99.90
2019-05-09T20:03:00.323Z,99.90
2019-05-09T20:05:28.957Z,99.90
2019-05-09T20:07:57.612Z,99.90
2019-05-09T20:10:43.764Z,99.90
2019-05-09T20:13:14.183Z,99.90
2019-05-09T20:15:42.817Z,99.90
2019-05-09T20:18:11.364Z,99.90
2019-05-09T20:20:39.922Z,99.90
2019-05-09T20:23:08.481Z,99.90
2019-05-09T20:25:36.957Z,99.90
2019-05-09T20:28:05.494Z,99.90
2019-05-09T20:30:34.090Z,99.90
2019-05-09T20:33:02.633Z,99.90
2019-05-09T20:35:31.203Z,99.90
2019-05-09T20:38:00.073Z,99.90
2019-05-09T20:40:28.813Z,99.90
2019-05-09T20:42:57.554Z,99.90
2019-05-09T20:45:26.347Z,99.90
2019-05-09T20:47:54.996Z,99.90
2019-05-09T20:50:23.670Z,99.90
2019-05-09T20:53:00.890Z,99.90
2019-05-09T20:55:22.828Z,99.90
2019-05-09T20:57:52.265Z,99.90
2019-05-09T21:00:21.125Z,99.90
2019-05-09T21:02:49.844Z,99.90
2019-05-09T21:05:18.568Z,99.90
2019-05-09T21:07:47.232Z,99.90
2019-05-09T21:10:16.140Z,99.90
2019-05-09T21:12:44.777Z,99.90
2019-05-09T21:15:13.771Z,99.90
2019-05-09T21:17:42.502Z,99.90
2019-05-09T21:20:11.246Z,99.90
2019-05-09T21:22:39.982Z,99.90
2019-05-09T21:25:08.808Z,99.90
2019-05-09T21:27:37.553Z,99.90
2019-05-09T21:30:09.453Z,99.90
2019-05-09T21:32:38.187Z,99.90
2019-05-09T21:35:07.010Z,99.90
2019-05-09T21:37:35.634Z,99.90
2019-05-09T21:40:06.170Z,99.90
2019-05-09T21:42:34.646Z,99.90
2019-05-09T21:45:03.747Z,99.90
2019-05-09T21:47:32.291Z,99.90
2019-05-09T21:50:00.853Z,99.90
2019-05-09T21:52:29.403Z,99.90
2019-05-09T21:54:57.968Z,99.90
2019-05-09T21:57:26.510Z,99.90
2019-05-09T21:59:54.994Z,99.90
2019-05-09T22:02:23.680Z,99.90
2019-05-09T22:04:52.323Z,99.90
2019-05-09T22:07:20.851Z,99.90
2019-05-09T22:09:49.386Z,99.90
2019-05-09T22:12:17.931Z,99.90
2019-05-09T22:14:46.399Z,99.90
2019-05-09T22:17:16.680Z,99.90
2019-05-09T22:19:45.261Z,99.90
2019-05-09T22:22:13.809Z,99.90
2019-05-09T22:24:42.291Z,99.90
2019-05-09T22:27:10.769Z,99.90
2019-05-09T22:29:39.311Z,99.90
2019-05-09T22:32:07.873Z,99.90
2019-05-09T22:34:36.417Z,99.90
2019-05-09T22:37:05.047Z,99.90
2019-05-09T22:39:33.579Z,99.90
2019-05-09T22:42:02.142Z,99.90
2019-05-09T22:44:30.687Z,99.90
2019-05-09T22:46:59.259Z,99.90
2019-05-09T22:49:27.811Z,99.90
2019-05-09T22:51:56.355Z,99.90
2019-05-09T22:54:24.827Z,99.90
2019-05-09T22:56:53.405Z,99.90
2019-05-09T22:59:21.930Z,99.90
2019-05-09T23:01:50.519Z,99.90
2019-05-09T23:04:19.057Z,99.90
2019-05-09T23:06:47.519Z,99.90
2019-05-09T23:09:15.987Z,99.90
2019-05-09T23:11:44.462Z,99.90
2019-05-09T23:14:13.002Z,99.90
2019-05-09T23:16:41.730Z,99.90
2019-05-09T23:19:10.335Z,99.90
2019-05-09T23:21:38.845Z,99.90
2019-05-09T23:24:09.264Z,99.90
2019-05-09T23:26:37.896Z,99.90
2019-05-09T23:29:06.574Z,99.90
2019-05-09T23:31:39.736Z,99.90
2019-05-09T23:34:08.203Z,99.90
2019-05-09T23:36:36.726Z,99.90
2019-05-09T23:39:14.190Z,99.90
2019-05-09T23:41:42.657Z,99.90
2019-05-09T23:44:11.153Z,99.90
2019-05-09T23:46:39.666Z,99.90
2019-05-09T23:49:08.308Z,99.90
2019-05-09T23:51:45.806Z,99.90
2019-05-09T23:54:45.040Z,99.90
2019-05-09T23:57:21.488Z,99.90
